sensor_id;sensor_type;location;lat;lon;timestamp;temperature;humidity
12901;DHT22;6518;50.930;5.344;2023-07-09T00:00:57;28.20;63.20
12901;DHT22;6518;50.930;5.344;2023-07-09T00:03:23;28.10;63.40
12901;DHT22;6518;50.930;5.344;2023-07-09T00:05:50;28.00;63.60
12901;DHT22;6518;50.930;5.344;2023-07-09T00:08:25;28.00;63.60
12901;DHT22;6518;50.930;5.344;2023-07-09T00:10:55;28.00;63.90
12901;DHT22;6518;50.930;5.344;2023-07-09T00:13:23;27.90;64.20
12901;DHT22;6518;50.930;5.344;2023-07-09T00:15:50;27.80;64.40
12901;DHT22;6518;50.930;5.344;2023-07-09T00:18:17;27.70;64.50
12901;DHT22;6518;50.930;5.344;2023-07-09T00:20:44;27.70;64.80
12901;DHT22;6518;50.930;5.344;2023-07-09T00:23:13;27.70;65.00
12901;DHT22;6518;50.930;5.344;2023-07-09T00:25:42;27.70;65.30
12901;DHT22;6518;50.930;5.344;2023-07-09T00:28:14;27.60;65.30
12901;DHT22;6518;50.930;5.344;2023-07-09T00:30:41;27.60;65.80
12901;DHT22;6518;50.930;5.344;2023-07-09T00:33:10;27.50;66.00
12901;DHT22;6518;50.930;5.344;2023-07-09T00:35:40;27.40;66.20
12901;DHT22;6518;50.930;5.344;2023-07-09T00:38:13;27.30;66.50
12901;DHT22;6518;50.930;5.344;2023-07-09T00:40:46;27.30;66.80
12901;DHT22;6518;50.930;5.344;2023-07-09T00:43:16;27.30;66.90
12901;DHT22;6518;50.930;5.344;2023-07-09T00:45:43;27.30;67.10
12901;DHT22;6518;50.930;5.344;2023-07-09T00:48:14;27.20;67.20
12901;DHT22;6518;50.930;5.344;2023-07-09T00:50:46;27.20;67.50
12901;DHT22;6518;50.930;5.344;2023-07-09T00:53:18;27.30;67.70
12901;DHT22;6518;50.930;5.344;2023-07-09T00:55:52;27.20;67.60
12901;DHT22;6518;50.930;5.344;2023-07-09T00:58:20;27.20;68.00
12901;DHT22;6518;50.930;5.344;2023-07-09T01:00:55;27.10;68.00
12901;DHT22;6518;50.930;5.344;2023-07-09T01:03:31;27.10;68.10
12901;DHT22;6518;50.930;5.344;2023-07-09T01:06:00;27.10;68.20
12901;DHT22;6518;50.930;5.344;2023-07-09T01:08:31;27.10;68.30
12901;DHT22;6518;50.930;5.344;2023-07-09T01:10:59;27.00;68.40
12901;DHT22;6518;50.930;5.344;2023-07-09T01:13:28;27.00;68.30
12901;DHT22;6518;50.930;5.344;2023-07-09T01:15:55;27.00;68.40
12901;DHT22;6518;50.930;5.344;2023-07-09T01:18:23;27.00;68.40
12901;DHT22;6518;50.930;5.344;2023-07-09T01:20:50;26.90;68.20
12901;DHT22;6518;50.930;5.344;2023-07-09T01:23:20;26.90;68.20
12901;DHT22;6518;50.930;5.344;2023-07-09T01:25:50;26.90;68.30
12901;DHT22;6518;50.930;5.344;2023-07-09T01:28:18;26.90;68.50
12901;DHT22;6518;50.930;5.344;2023-07-09T01:30:46;26.90;68.60
12901;DHT22;6518;50.930;5.344;2023-07-09T01:33:20;26.80;68.60
12901;DHT22;6518;50.930;5.344;2023-07-09T01:35:47;26.80;68.80
12901;DHT22;6518;50.930;5.344;2023-07-09T01:38:14;26.80;69.00
12901;DHT22;6518;50.930;5.344;2023-07-09T01:40:43;26.80;69.10
12901;DHT22;6518;50.930;5.344;2023-07-09T01:43:11;26.70;69.10
12901;DHT22;6518;50.930;5.344;2023-07-09T01:45:38;26.70;69.10
12901;DHT22;6518;50.930;5.344;2023-07-09T01:48:05;26.70;69.30
12901;DHT22;6518;50.930;5.344;2023-07-09T01:50:39;26.70;69.30
12901;DHT22;6518;50.930;5.344;2023-07-09T01:53:09;26.90;69.60
12901;DHT22;6518;50.930;5.344;2023-07-09T01:55:37;26.60;69.40
12901;DHT22;6518;50.930;5.344;2023-07-09T01:58:05;26.50;69.50
12901;DHT22;6518;50.930;5.344;2023-07-09T02:00:34;26.50;69.40
12901;DHT22;6518;50.930;5.344;2023-07-09T02:03:01;26.50;69.40
12901;DHT22;6518;50.930;5.344;2023-07-09T02:05:31;26.50;69.40
12901;DHT22;6518;50.930;5.344;2023-07-09T02:07:58;26.50;69.60
12901;DHT22;6518;50.930;5.344;2023-07-09T02:10:25;26.40;69.40
12901;DHT22;6518;50.930;5.344;2023-07-09T02:12:53;26.40;69.40
12901;DHT22;6518;50.930;5.344;2023-07-09T02:15:21;26.30;69.50
12901;DHT22;6518;50.930;5.344;2023-07-09T02:17:48;26.30;69.50
12901;DHT22;6518;50.930;5.344;2023-07-09T02:20:15;26.30;69.70
12901;DHT22;6518;50.930;5.344;2023-07-09T02:22:42;26.20;69.70
12901;DHT22;6518;50.930;5.344;2023-07-09T02:25:09;26.20;69.70
12901;DHT22;6518;50.930;5.344;2023-07-09T02:27:37;26.20;69.70
12901;DHT22;6518;50.930;5.344;2023-07-09T02:30:05;26.20;69.70
12901;DHT22;6518;50.930;5.344;2023-07-09T02:32:34;26.20;69.80
12901;DHT22;6518;50.930;5.344;2023-07-09T02:35:00;26.20;69.80
12901;DHT22;6518;50.930;5.344;2023-07-09T02:37:27;26.20;69.60
12901;DHT22;6518;50.930;5.344;2023-07-09T02:39:54;26.20;69.60
12901;DHT22;6518;50.930;5.344;2023-07-09T02:42:22;26.10;69.70
12901;DHT22;6518;50.930;5.344;2023-07-09T02:44:50;26.10;70.10
12901;DHT22;6518;50.930;5.344;2023-07-09T02:47:17;26.00;70.50
12901;DHT22;6518;50.930;5.344;2023-07-09T02:49:46;25.90;71.00
12901;DHT22;6518;50.930;5.344;2023-07-09T02:52:13;25.80;71.20
12901;DHT22;6518;50.930;5.344;2023-07-09T02:54:40;25.80;71.40
12901;DHT22;6518;50.930;5.344;2023-07-09T02:57:07;25.70;71.70
12901;DHT22;6518;50.930;5.344;2023-07-09T02:59:34;25.60;71.90
12901;DHT22;6518;50.930;5.344;2023-07-09T03:02:01;25.60;72.40
12901;DHT22;6518;50.930;5.344;2023-07-09T03:04:29;25.50;72.60
12901;DHT22;6518;50.930;5.344;2023-07-09T03:06:58;25.40;72.90
12901;DHT22;6518;50.930;5.344;2023-07-09T03:09:26;25.40;73.10
12901;DHT22;6518;50.930;5.344;2023-07-09T03:11:53;25.40;73.10
12901;DHT22;6518;50.930;5.344;2023-07-09T03:14:20;25.40;73.00
12901;DHT22;6518;50.930;5.344;2023-07-09T03:16:47;25.40;73.10
12901;DHT22;6518;50.930;5.344;2023-07-09T03:19:14;25.40;73.10
12901;DHT22;6518;50.930;5.344;2023-07-09T03:21:41;25.40;73.00
12901;DHT22;6518;50.930;5.344;2023-07-09T03:24:09;25.40;73.10
12901;DHT22;6518;50.930;5.344;2023-07-09T03:26:36;25.40;73.10
12901;DHT22;6518;50.930;5.344;2023-07-09T03:29:03;25.40;73.10
12901;DHT22;6518;50.930;5.344;2023-07-09T03:31:30;25.40;73.20
12901;DHT22;6518;50.930;5.344;2023-07-09T03:34:00;25.40;73.30
12901;DHT22;6518;50.930;5.344;2023-07-09T03:36:28;25.30;73.40
12901;DHT22;6518;50.930;5.344;2023-07-09T03:38:54;25.30;73.30
12901;DHT22;6518;50.930;5.344;2023-07-09T03:41:24;25.30;73.30
12901;DHT22;6518;50.930;5.344;2023-07-09T03:43:51;25.30;73.60
12901;DHT22;6518;50.930;5.344;2023-07-09T03:46:19;25.30;73.60
12901;DHT22;6518;50.930;5.344;2023-07-09T03:48:45;25.30;73.70
12901;DHT22;6518;50.930;5.344;2023-07-09T03:51:12;25.30;73.90
12901;DHT22;6518;50.930;5.344;2023-07-09T03:53:39;25.20;73.80
12901;DHT22;6518;50.930;5.344;2023-07-09T03:56:06;25.20;74.00
12901;DHT22;6518;50.930;5.344;2023-07-09T03:58:35;25.20;74.00
12901;DHT22;6518;50.930;5.344;2023-07-09T04:01:02;25.20;74.10
12901;DHT22;6518;50.930;5.344;2023-07-09T04:03:30;25.20;74.30
12901;DHT22;6518;50.930;5.344;2023-07-09T04:05:57;25.20;74.30
12901;DHT22;6518;50.930;5.344;2023-07-09T04:08:24;25.20;74.50
12901;DHT22;6518;50.930;5.344;2023-07-09T04:10:53;25.20;74.70
12901;DHT22;6518;50.930;5.344;2023-07-09T04:13:22;25.20;74.70
12901;DHT22;6518;50.930;5.344;2023-07-09T04:15:50;25.20;74.70
12901;DHT22;6518;50.930;5.344;2023-07-09T04:18:17;25.20;74.60
12901;DHT22;6518;50.930;5.344;2023-07-09T04:20:45;25.20;74.70
12901;DHT22;6518;50.930;5.344;2023-07-09T04:23:14;25.20;74.70
12901;DHT22;6518;50.930;5.344;2023-07-09T04:25:41;25.20;74.80
12901;DHT22;6518;50.930;5.344;2023-07-09T04:28:07;25.20;74.80
12901;DHT22;6518;50.930;5.344;2023-07-09T04:30:34;25.20;74.70
12901;DHT22;6518;50.930;5.344;2023-07-09T04:33:03;25.20;73.50
12901;DHT22;6518;50.930;5.344;2023-07-09T04:35:30;25.20;73.30
12901;DHT22;6518;50.930;5.344;2023-07-09T04:37:57;25.20;73.80
12901;DHT22;6518;50.930;5.344;2023-07-09T04:40:23;25.20;73.70
12901;DHT22;6518;50.930;5.344;2023-07-09T04:42:50;25.20;73.70
12901;DHT22;6518;50.930;5.344;2023-07-09T04:45:17;25.20;74.00
12901;DHT22;6518;50.930;5.344;2023-07-09T04:47:44;25.20;74.10
12901;DHT22;6518;50.930;5.344;2023-07-09T04:50:12;25.20;74.10
12901;DHT22;6518;50.930;5.344;2023-07-09T04:52:39;25.20;74.10
12901;DHT22;6518;50.930;5.344;2023-07-09T04:55:07;25.30;74.20
12901;DHT22;6518;50.930;5.344;2023-07-09T04:57:34;25.30;74.00
12901;DHT22;6518;50.930;5.344;2023-07-09T05:00:02;25.30;74.10
12901;DHT22;6518;50.930;5.344;2023-07-09T05:02:31;25.30;74.10
12901;DHT22;6518;50.930;5.344;2023-07-09T05:04:57;25.40;74.00
12901;DHT22;6518;50.930;5.344;2023-07-09T05:07:26;25.40;73.90
12901;DHT22;6518;50.930;5.344;2023-07-09T05:09:53;25.50;73.90
12901;DHT22;6518;50.930;5.344;2023-07-09T05:12:20;25.50;73.60
12901;DHT22;6518;50.930;5.344;2023-07-09T05:14:47;25.50;73.70
12901;DHT22;6518;50.930;5.344;2023-07-09T05:17:14;25.50;73.40
12901;DHT22;6518;50.930;5.344;2023-07-09T05:19:40;25.60;73.50
12901;DHT22;6518;50.930;5.344;2023-07-09T05:22:07;25.60;73.10
12901;DHT22;6518;50.930;5.344;2023-07-09T05:24:35;25.60;73.00
12901;DHT22;6518;50.930;5.344;2023-07-09T05:27:03;25.60;72.90
12901;DHT22;6518;50.930;5.344;2023-07-09T05:29:30;25.60;72.80
12901;DHT22;6518;50.930;5.344;2023-07-09T05:31:57;25.70;72.90
12901;DHT22;6518;50.930;5.344;2023-07-09T05:34:24;25.70;73.00
12901;DHT22;6518;50.930;5.344;2023-07-09T05:36:50;25.80;72.80
12901;DHT22;6518;50.930;5.344;2023-07-09T05:39:17;25.80;72.70
12901;DHT22;6518;50.930;5.344;2023-07-09T05:41:46;25.90;72.60
12901;DHT22;6518;50.930;5.344;2023-07-09T05:44:12;26.00;72.60
12901;DHT22;6518;50.930;5.344;2023-07-09T05:46:39;26.10;72.50
12901;DHT22;6518;50.930;5.344;2023-07-09T05:49:06;26.10;72.40
12901;DHT22;6518;50.930;5.344;2023-07-09T05:51:33;26.20;72.30
12901;DHT22;6518;50.930;5.344;2023-07-09T05:54:00;26.30;72.20
12901;DHT22;6518;50.930;5.344;2023-07-09T05:56:27;26.30;72.20
12901;DHT22;6518;50.930;5.344;2023-07-09T05:58:56;26.40;72.00
12901;DHT22;6518;50.930;5.344;2023-07-09T06:01:23;26.40;71.80
12901;DHT22;6518;50.930;5.344;2023-07-09T06:03:50;26.40;71.60
12901;DHT22;6518;50.930;5.344;2023-07-09T06:06:17;26.50;71.30
12901;DHT22;6518;50.930;5.344;2023-07-09T06:08:43;26.40;71.30
12901;DHT22;6518;50.930;5.344;2023-07-09T06:11:12;26.50;71.40
12901;DHT22;6518;50.930;5.344;2023-07-09T06:13:39;26.60;71.50
12901;DHT22;6518;50.930;5.344;2023-07-09T06:16:07;26.60;71.20
12901;DHT22;6518;50.930;5.344;2023-07-09T06:18:34;26.70;70.80
12901;DHT22;6518;50.930;5.344;2023-07-09T06:21:02;26.70;70.90
12901;DHT22;6518;50.930;5.344;2023-07-09T06:23:30;26.80;70.80
12901;DHT22;6518;50.930;5.344;2023-07-09T06:25:57;26.90;70.40
12901;DHT22;6518;50.930;5.344;2023-07-09T06:28:25;27.00;70.40
12901;DHT22;6518;50.930;5.344;2023-07-09T06:30:54;27.10;70.30
12901;DHT22;6518;50.930;5.344;2023-07-09T06:33:24;27.10;69.80
12901;DHT22;6518;50.930;5.344;2023-07-09T06:35:53;27.20;69.60
12901;DHT22;6518;50.930;5.344;2023-07-09T06:38:20;27.30;69.40
12901;DHT22;6518;50.930;5.344;2023-07-09T06:40:47;27.40;69.00
12901;DHT22;6518;50.930;5.344;2023-07-09T06:43:14;27.50;68.70
12901;DHT22;6518;50.930;5.344;2023-07-09T06:45:48;27.70;68.50
12901;DHT22;6518;50.930;5.344;2023-07-09T06:48:15;27.80;68.00
12901;DHT22;6518;50.930;5.344;2023-07-09T06:50:44;27.90;68.00
12901;DHT22;6518;50.930;5.344;2023-07-09T06:53:11;28.00;67.70
12901;DHT22;6518;50.930;5.344;2023-07-09T06:55:38;28.10;67.10
12901;DHT22;6518;50.930;5.344;2023-07-09T06:58:05;28.20;66.60
12901;DHT22;6518;50.930;5.344;2023-07-09T07:00:33;28.20;66.50
12901;DHT22;6518;50.930;5.344;2023-07-09T07:03:00;28.30;65.90
12901;DHT22;6518;50.930;5.344;2023-07-09T07:05:27;28.40;65.60
12901;DHT22;6518;50.930;5.344;2023-07-09T07:07:56;28.40;65.50
12901;DHT22;6518;50.930;5.344;2023-07-09T07:10:23;28.50;65.50
12901;DHT22;6518;50.930;5.344;2023-07-09T07:12:49;28.50;65.40
12901;DHT22;6518;50.930;5.344;2023-07-09T07:15:17;28.60;65.30
12901;DHT22;6518;50.930;5.344;2023-07-09T07:17:44;28.70;65.00
12901;DHT22;6518;50.930;5.344;2023-07-09T07:20:13;28.70;65.00
12901;DHT22;6518;50.930;5.344;2023-07-09T07:22:40;28.80;65.10
12901;DHT22;6518;50.930;5.344;2023-07-09T07:25:09;28.90;64.70
12901;DHT22;6518;50.930;5.344;2023-07-09T07:27:37;28.90;64.40
12901;DHT22;6518;50.930;5.344;2023-07-09T07:30:05;29.00;64.10
12901;DHT22;6518;50.930;5.344;2023-07-09T07:32:35;29.00;63.70
12901;DHT22;6518;50.930;5.344;2023-07-09T07:35:01;29.00;63.80
12901;DHT22;6518;50.930;5.344;2023-07-09T07:37:28;29.10;63.80
12901;DHT22;6518;50.930;5.344;2023-07-09T07:39:55;29.10;63.10
12901;DHT22;6518;50.930;5.344;2023-07-09T07:42:23;29.00;63.30
12901;DHT22;6518;50.930;5.344;2023-07-09T07:44:50;29.10;63.60
12901;DHT22;6518;50.930;5.344;2023-07-09T07:47:18;29.10;63.40
12901;DHT22;6518;50.930;5.344;2023-07-09T07:49:45;29.10;64.10
12901;DHT22;6518;50.930;5.344;2023-07-09T07:52:12;29.00;63.00
12901;DHT22;6518;50.930;5.344;2023-07-09T07:54:38;29.00;62.70
12901;DHT22;6518;50.930;5.344;2023-07-09T07:57:05;29.00;63.10
12901;DHT22;6518;50.930;5.344;2023-07-09T07:59:36;29.00;63.30
12901;DHT22;6518;50.930;5.344;2023-07-09T08:02:04;29.10;63.40
12901;DHT22;6518;50.930;5.344;2023-07-09T08:04:31;29.20;63.30
12901;DHT22;6518;50.930;5.344;2023-07-09T08:06:58;29.30;63.10
12901;DHT22;6518;50.930;5.344;2023-07-09T08:09:25;29.30;62.80
12901;DHT22;6518;50.930;5.344;2023-07-09T08:11:52;29.30;63.10
12901;DHT22;6518;50.930;5.344;2023-07-09T08:14:19;29.30;62.90
12901;DHT22;6518;50.930;5.344;2023-07-09T08:16:48;29.40;63.10
12901;DHT22;6518;50.930;5.344;2023-07-09T08:19:19;29.50;62.90
12901;DHT22;6518;50.930;5.344;2023-07-09T08:21:46;29.60;62.60
12901;DHT22;6518;50.930;5.344;2023-07-09T08:24:13;29.70;62.50
12901;DHT22;6518;50.930;5.344;2023-07-09T08:26:40;29.80;62.20
12901;DHT22;6518;50.930;5.344;2023-07-09T08:29:07;29.80;61.70
12901;DHT22;6518;50.930;5.344;2023-07-09T08:31:34;29.80;61.30
12901;DHT22;6518;50.930;5.344;2023-07-09T08:34:05;29.90;61.50
12901;DHT22;6518;50.930;5.344;2023-07-09T08:36:32;29.90;61.30
12901;DHT22;6518;50.930;5.344;2023-07-09T08:39:01;29.90;61.40
12901;DHT22;6518;50.930;5.344;2023-07-09T08:41:40;30.00;61.40
12901;DHT22;6518;50.930;5.344;2023-07-09T08:44:28;30.00;60.90
12901;DHT22;6518;50.930;5.344;2023-07-09T08:47:02;30.00;61.10
12901;DHT22;6518;50.930;5.344;2023-07-09T08:49:40;30.00;61.30
12901;DHT22;6518;50.930;5.344;2023-07-09T08:52:13;30.00;60.80
12901;DHT22;6518;50.930;5.344;2023-07-09T08:54:42;29.90;60.40
12901;DHT22;6518;50.930;5.344;2023-07-09T08:57:19;29.90;60.40
12901;DHT22;6518;50.930;5.344;2023-07-09T08:59:50;30.00;59.90
12901;DHT22;6518;50.930;5.344;2023-07-09T09:02:29;30.00;60.00
12901;DHT22;6518;50.930;5.344;2023-07-09T09:04:58;30.10;59.90
12901;DHT22;6518;50.930;5.344;2023-07-09T09:07:35;30.20;59.50
12901;DHT22;6518;50.930;5.344;2023-07-09T09:10:07;30.10;59.20
12901;DHT22;6518;50.930;5.344;2023-07-09T09:12:38;30.10;59.20
12901;DHT22;6518;50.930;5.344;2023-07-09T09:15:12;30.00;59.50
12901;DHT22;6518;50.930;5.344;2023-07-09T09:17:41;30.10;59.30
12901;DHT22;6518;50.930;5.344;2023-07-09T09:20:15;30.20;59.40
12901;DHT22;6518;50.930;5.344;2023-07-09T09:22:46;30.20;59.30
12901;DHT22;6518;50.930;5.344;2023-07-09T09:25:23;30.20;59.40
12901;DHT22;6518;50.930;5.344;2023-07-09T09:27:50;30.20;59.50
12901;DHT22;6518;50.930;5.344;2023-07-09T09:30:23;30.20;59.60
12901;DHT22;6518;50.930;5.344;2023-07-09T09:32:54;30.20;59.50
12901;DHT22;6518;50.930;5.344;2023-07-09T09:35:26;30.30;59.40
12901;DHT22;6518;50.930;5.344;2023-07-09T09:37:55;30.40;59.20
12901;DHT22;6518;50.930;5.344;2023-07-09T09:40:25;30.50;59.80
12901;DHT22;6518;50.930;5.344;2023-07-09T09:42:54;30.60;59.20
12901;DHT22;6518;50.930;5.344;2023-07-09T09:45:25;30.70;59.10
12901;DHT22;6518;50.930;5.344;2023-07-09T09:47:53;30.80;59.20
12901;DHT22;6518;50.930;5.344;2023-07-09T09:50:30;30.90;58.80
12901;DHT22;6518;50.930;5.344;2023-07-09T09:52:59;30.90;58.70
12901;DHT22;6518;50.930;5.344;2023-07-09T09:55:29;31.00;58.90
12901;DHT22;6518;50.930;5.344;2023-07-09T09:57:56;31.00;58.90
12901;DHT22;6518;50.930;5.344;2023-07-09T10:00:26;31.20;59.00
12901;DHT22;6518;50.930;5.344;2023-07-09T10:02:58;31.30;59.00
12901;DHT22;6518;50.930;5.344;2023-07-09T10:05:32;31.40;58.70
12901;DHT22;6518;50.930;5.344;2023-07-09T10:08:05;31.40;58.40
12901;DHT22;6518;50.930;5.344;2023-07-09T10:10:33;31.50;58.40
12901;DHT22;6518;50.930;5.344;2023-07-09T10:13:06;31.60;58.20
12901;DHT22;6518;50.930;5.344;2023-07-09T10:15:42;31.60;58.20
12901;DHT22;6518;50.930;5.344;2023-07-09T10:18:20;31.70;58.00
12901;DHT22;6518;50.930;5.344;2023-07-09T10:21:04;31.80;57.90
12901;DHT22;6518;50.930;5.344;2023-07-09T10:23:37;31.90;57.60
12901;DHT22;6518;50.930;5.344;2023-07-09T10:26:11;31.90;57.30
12901;DHT22;6518;50.930;5.344;2023-07-09T10:29:01;32.00;57.40
12901;DHT22;6518;50.930;5.344;2023-07-09T10:31:39;32.20;57.60
12901;DHT22;6518;50.930;5.344;2023-07-09T10:34:17;32.20;57.60
12901;DHT22;6518;50.930;5.344;2023-07-09T10:37:13;32.30;57.60
12901;DHT22;6518;50.930;5.344;2023-07-09T10:39:44;32.40;57.50
12901;DHT22;6518;50.930;5.344;2023-07-09T10:42:21;32.40;57.10
12901;DHT22;6518;50.930;5.344;2023-07-09T10:44:56;32.40;57.30
12901;DHT22;6518;50.930;5.344;2023-07-09T10:47:29;32.50;57.40
12901;DHT22;6518;50.930;5.344;2023-07-09T10:49:57;32.60;57.20
12901;DHT22;6518;50.930;5.344;2023-07-09T10:52:30;32.60;56.90
12901;DHT22;6518;50.930;5.344;2023-07-09T10:55:01;32.70;56.80
12901;DHT22;6518;50.930;5.344;2023-07-09T10:57:42;32.70;56.20
12901;DHT22;6518;50.930;5.344;2023-07-09T11:00:13;32.70;56.20
12901;DHT22;6518;50.930;5.344;2023-07-09T11:02:42;32.70;56.60
12901;DHT22;6518;50.930;5.344;2023-07-09T11:05:10;32.70;56.80
12901;DHT22;6518;50.930;5.344;2023-07-09T11:07:41;32.70;56.80
12901;DHT22;6518;50.930;5.344;2023-07-09T11:10:24;32.70;56.30
12901;DHT22;6518;50.930;5.344;2023-07-09T11:12:57;32.70;56.20
12901;DHT22;6518;50.930;5.344;2023-07-09T11:15:31;32.70;56.00
12901;DHT22;6518;50.930;5.344;2023-07-09T11:17:59;32.60;55.70
12901;DHT22;6518;50.930;5.344;2023-07-09T11:20:31;32.70;56.20
12901;DHT22;6518;50.930;5.344;2023-07-09T11:23:05;32.70;56.40
12901;DHT22;6518;50.930;5.344;2023-07-09T11:25:41;32.80;56.80
12901;DHT22;6518;50.930;5.344;2023-07-09T11:28:08;32.80;56.80
12901;DHT22;6518;50.930;5.344;2023-07-09T11:30:46;32.80;56.80
12901;DHT22;6518;50.930;5.344;2023-07-09T11:33:18;32.70;56.80
12901;DHT22;6518;50.930;5.344;2023-07-09T11:35:46;32.70;57.00
12901;DHT22;6518;50.930;5.344;2023-07-09T11:38:18;32.70;57.00
12901;DHT22;6518;50.930;5.344;2023-07-09T11:40:47;32.70;56.40
12901;DHT22;6518;50.930;5.344;2023-07-09T11:43:27;32.80;56.40
12901;DHT22;6518;50.930;5.344;2023-07-09T11:45:57;32.90;56.40
12901;DHT22;6518;50.930;5.344;2023-07-09T11:48:26;33.00;56.50
12901;DHT22;6518;50.930;5.344;2023-07-09T11:50:55;32.90;56.90
12901;DHT22;6518;50.930;5.344;2023-07-09T11:53:33;32.60;57.30
12901;DHT22;6518;50.930;5.344;2023-07-09T11:56:00;32.30;57.50
12901;DHT22;6518;50.930;5.344;2023-07-09T11:58:27;32.00;58.10
12901;DHT22;6518;50.930;5.344;2023-07-09T12:00:56;31.90;58.50
12901;DHT22;6518;50.930;5.344;2023-07-09T12:03:27;31.90;58.40
12901;DHT22;6518;50.930;5.344;2023-07-09T12:05:56;31.80;58.80
12901;DHT22;6518;50.930;5.344;2023-07-09T12:08:34;31.70;60.10
12901;DHT22;6518;50.930;5.344;2023-07-09T12:11:01;31.50;59.60
12901;DHT22;6518;50.930;5.344;2023-07-09T12:13:28;31.30;59.80
12901;DHT22;6518;50.930;5.344;2023-07-09T12:15:54;31.20;60.10
12901;DHT22;6518;50.930;5.344;2023-07-09T12:18:21;31.00;60.20
12901;DHT22;6518;50.930;5.344;2023-07-09T12:20:50;30.70;60.60
12901;DHT22;6518;50.930;5.344;2023-07-09T12:23:22;30.60;61.10
12901;DHT22;6518;50.930;5.344;2023-07-09T12:25:51;30.50;61.50
12901;DHT22;6518;50.930;5.344;2023-07-09T12:28:19;30.40;61.40
12901;DHT22;6518;50.930;5.344;2023-07-09T12:30:47;30.20;61.80
12901;DHT22;6518;50.930;5.344;2023-07-09T12:33:17;30.10;62.40
12901;DHT22;6518;50.930;5.344;2023-07-09T12:35:44;30.00;62.40
12901;DHT22;6518;50.930;5.344;2023-07-09T12:38:18;30.00;63.00
12901;DHT22;6518;50.930;5.344;2023-07-09T12:40:45;29.70;64.30
12901;DHT22;6518;50.930;5.344;2023-07-09T12:43:18;29.50;65.00
12901;DHT22;6518;50.930;5.344;2023-07-09T12:45:46;29.30;66.00
12901;DHT22;6518;50.930;5.344;2023-07-09T12:48:13;29.10;66.60
12901;DHT22;6518;50.930;5.344;2023-07-09T12:50:40;29.00;66.90
12901;DHT22;6518;50.930;5.344;2023-07-09T12:53:13;28.90;67.00
12901;DHT22;6518;50.930;5.344;2023-07-09T12:55:42;28.80;67.10
12901;DHT22;6518;50.930;5.344;2023-07-09T12:58:13;28.70;67.40
12901;DHT22;6518;50.930;5.344;2023-07-09T13:00:47;28.60;67.40
12901;DHT22;6518;50.930;5.344;2023-07-09T13:03:18;28.50;67.50
12901;DHT22;6518;50.930;5.344;2023-07-09T13:05:54;28.40;67.50
12901;DHT22;6518;50.930;5.344;2023-07-09T13:08:21;28.30;67.90
12901;DHT22;6518;50.930;5.344;2023-07-09T13:10:48;28.10;68.10
12901;DHT22;6518;50.930;5.344;2023-07-09T13:13:19;27.90;68.70
12901;DHT22;6518;50.930;5.344;2023-07-09T13:15:51;27.80;69.20
12901;DHT22;6518;50.930;5.344;2023-07-09T13:18:23;27.60;70.00
12901;DHT22;6518;50.930;5.344;2023-07-09T13:20:51;27.40;70.60
12901;DHT22;6518;50.930;5.344;2023-07-09T13:23:22;27.30;71.10
12901;DHT22;6518;50.930;5.344;2023-07-09T13:25:50;27.00;71.80
12901;DHT22;6518;50.930;5.344;2023-07-09T13:28:19;26.80;72.60
12901;DHT22;6518;50.930;5.344;2023-07-09T13:30:47;26.60;72.90
12901;DHT22;6518;50.930;5.344;2023-07-09T13:33:16;26.50;73.60
12901;DHT22;6518;50.930;5.344;2023-07-09T13:35:43;26.30;74.30
12901;DHT22;6518;50.930;5.344;2023-07-09T13:38:14;26.10;74.40
12901;DHT22;6518;50.930;5.344;2023-07-09T13:40:42;26.20;74.70
12901;DHT22;6518;50.930;5.344;2023-07-09T13:43:12;26.10;74.50
12901;DHT22;6518;50.930;5.344;2023-07-09T13:45:39;26.10;75.10
12901;DHT22;6518;50.930;5.344;2023-07-09T13:48:13;26.00;75.60
12901;DHT22;6518;50.930;5.344;2023-07-09T13:50:43;26.00;75.90
12901;DHT22;6518;50.930;5.344;2023-07-09T13:53:14;26.00;75.60
12901;DHT22;6518;50.930;5.344;2023-07-09T13:55:41;26.10;75.50
12901;DHT22;6518;50.930;5.344;2023-07-09T13:58:09;26.40;75.20
12901;DHT22;6518;50.930;5.344;2023-07-09T14:00:36;26.50;74.10
12901;DHT22;6518;50.930;5.344;2023-07-09T14:03:04;26.80;73.10
12901;DHT22;6518;50.930;5.344;2023-07-09T14:05:35;26.90;71.90
12901;DHT22;6518;50.930;5.344;2023-07-09T14:08:04;26.90;71.50
12901;DHT22;6518;50.930;5.344;2023-07-09T14:10:30;26.70;72.20
12901;DHT22;6518;50.930;5.344;2023-07-09T14:12:57;26.80;72.10
12901;DHT22;6518;50.930;5.344;2023-07-09T14:15:24;27.10;71.30
12901;DHT22;6518;50.930;5.344;2023-07-09T14:17:51;27.30;70.80
12901;DHT22;6518;50.930;5.344;2023-07-09T14:20:18;27.40;70.20
12901;DHT22;6518;50.930;5.344;2023-07-09T14:22:48;27.50;70.00
12901;DHT22;6518;50.930;5.344;2023-07-09T14:25:20;27.70;70.10
12901;DHT22;6518;50.930;5.344;2023-07-09T14:27:48;27.70;69.30
12901;DHT22;6518;50.930;5.344;2023-07-09T14:30:16;27.50;69.50
12901;DHT22;6518;50.930;5.344;2023-07-09T14:32:45;27.40;70.00
12901;DHT22;6518;50.930;5.344;2023-07-09T14:35:15;27.60;70.30
12901;DHT22;6518;50.930;5.344;2023-07-09T14:37:44;27.70;69.50
12901;DHT22;6518;50.930;5.344;2023-07-09T14:40:11;27.80;69.40
12901;DHT22;6518;50.930;5.344;2023-07-09T14:42:41;27.80;69.20
12901;DHT22;6518;50.930;5.344;2023-07-09T14:45:17;27.90;68.90
12901;DHT22;6518;50.930;5.344;2023-07-09T14:47:44;28.00;68.90
12901;DHT22;6518;50.930;5.344;2023-07-09T14:50:11;28.20;67.90
12901;DHT22;6518;50.930;5.344;2023-07-09T14:52:38;28.30;68.70
12901;DHT22;6518;50.930;5.344;2023-07-09T14:55:09;28.60;67.50
12901;DHT22;6518;50.930;5.344;2023-07-09T14:57:41;28.90;67.20
12901;DHT22;6518;50.930;5.344;2023-07-09T15:00:12;29.20;66.40
12901;DHT22;6518;50.930;5.344;2023-07-09T15:02:41;29.30;64.70
12901;DHT22;6518;50.930;5.344;2023-07-09T15:05:13;29.30;63.80
12901;DHT22;6518;50.930;5.344;2023-07-09T15:07:40;29.40;64.00
12901;DHT22;6518;50.930;5.344;2023-07-09T15:10:12;29.60;64.20
12901;DHT22;6518;50.930;5.344;2023-07-09T15:12:40;29.70;64.00
12901;DHT22;6518;50.930;5.344;2023-07-09T15:15:15;29.80;63.80
12901;DHT22;6518;50.930;5.344;2023-07-09T15:17:43;29.90;63.10
12901;DHT22;6518;50.930;5.344;2023-07-09T15:20:13;29.90;62.90
12901;DHT22;6518;50.930;5.344;2023-07-09T15:22:42;29.90;62.70
12901;DHT22;6518;50.930;5.344;2023-07-09T15:25:12;29.90;62.90
12901;DHT22;6518;50.930;5.344;2023-07-09T15:27:41;30.00;63.10
12901;DHT22;6518;50.930;5.344;2023-07-09T15:30:13;30.00;63.60
12901;DHT22;6518;50.930;5.344;2023-07-09T15:32:40;30.10;62.60
12901;DHT22;6518;50.930;5.344;2023-07-09T15:35:08;30.10;62.80
12901;DHT22;6518;50.930;5.344;2023-07-09T15:37:35;30.20;62.80
12901;DHT22;6518;50.930;5.344;2023-07-09T15:40:02;30.30;62.50
12901;DHT22;6518;50.930;5.344;2023-07-09T15:42:29;30.30;62.00
12901;DHT22;6518;50.930;5.344;2023-07-09T15:44:57;30.40;61.90
12901;DHT22;6518;50.930;5.344;2023-07-09T15:47:26;30.50;61.70
12901;DHT22;6518;50.930;5.344;2023-07-09T15:49:54;30.60;61.50
12901;DHT22;6518;50.930;5.344;2023-07-09T15:52:21;30.80;61.30
12901;DHT22;6518;50.930;5.344;2023-07-09T15:54:47;30.80;60.80
12901;DHT22;6518;50.930;5.344;2023-07-09T15:57:15;30.90;60.60